sensor_id;sensor_type;location;lat;lon;timestamp;temperature;humidity
47310;DHT22;33046;52.270;6.832;2024-01-06T00:01:31;8.00;99.90
47310;DHT22;33046;52.270;6.832;2024-01-06T00:03:38;7.90;99.90
47310;DHT22;33046;52.270;6.832;2024-01-06T00:05:45;8.00;99.90
47310;DHT22;33046;52.270;6.832;2024-01-06T00:07:52;8.00;99.90
47310;DHT22;33046;52.270;6.832;2024-01-06T00:10:00;8.00;99.90
47310;DHT22;33046;52.270;6.832;2024-01-06T00:12:07;8.00;99.90
47310;DHT22;33046;52.270;6.832;2024-01-06T00:14:14;8.00;99.90
47310;DHT22;33046;52.270;6.832;2024-01-06T00:16:21;7.90;99.90
47310;DHT22;33046;52.270;6.832;2024-01-06T00:18:28;7.90;99.90
47310;DHT22;33046;52.270;6.832;2024-01-06T00:20:35;7.90;99.90
47310;DHT22;33046;52.270;6.832;2024-01-06T00:22:41;7.90;99.90
47310;DHT22;33046;52.270;6.832;2024-01-06T00:24:48;7.80;99.90
47310;DHT22;33046;52.270;6.832;2024-01-06T00:26:57;7.80;99.90
47310;DHT22;33046;52.270;6.832;2024-01-06T00:29:03;7.80;99.90
47310;DHT22;33046;52.270;6.832;2024-01-06T00:31:10;7.90;99.90
47310;DHT22;33046;52.270;6.832;2024-01-06T00:33:17;7.80;99.90
47310;DHT22;33046;52.270;6.832;2024-01-06T00:35:24;7.80;99.90
47310;DHT22;33046;52.270;6.832;2024-01-06T00:37:31;7.70;99.90
47310;DHT22;33046;52.270;6.832;2024-01-06T00:39:38;7.80;99.90
47310;DHT22;33046;52.270;6.832;2024-01-06T00:41:45;7.80;99.90
47310;DHT22;33046;52.270;6.832;2024-01-06T00:43:53;7.70;99.90
47310;DHT22;33046;52.270;6.832;2024-01-06T00:46:00;7.80;99.90
47310;DHT22;33046;52.270;6.832;2024-01-06T00:48:07;7.70;99.90
47310;DHT22;33046;52.270;6.832;2024-01-06T00:50:14;7.70;99.90
47310;DHT22;33046;52.270;6.832;2024-01-06T00:52:21;7.80;99.90
47310;DHT22;33046;52.270;6.832;2024-01-06T00:54:27;7.70;99.90
47310;DHT22;33046;52.270;6.832;2024-01-06T00:56:34;7.70;99.90
47310;DHT22;33046;52.270;6.832;2024-01-06T00:58:41;7.70;99.90
47310;DHT22;33046;52.270;6.832;2024-01-06T01:00:49;7.60;99.90
47310;DHT22;33046;52.270;6.832;2024-01-06T01:02:56;7.70;99.90
47310;DHT22;33046;52.270;6.832;2024-01-06T01:05:04;7.50;99.90
47310;DHT22;33046;52.270;6.832;2024-01-06T01:07:11;7.60;99.90
47310;DHT22;33046;52.270;6.832;2024-01-06T01:09:18;7.60;99.90
47310;DHT22;33046;52.270;6.832;2024-01-06T01:11:25;7.50;99.90
47310;DHT22;33046;52.270;6.832;2024-01-06T01:13:32;7.40;99.90
47310;DHT22;33046;52.270;6.832;2024-01-06T01:15:39;7.40;99.90
47310;DHT22;33046;52.270;6.832;2024-01-06T01:17:47;7.40;99.90
47310;DHT22;33046;52.270;6.832;2024-01-06T01:19:54;7.40;99.90
47310;DHT22;33046;52.270;6.832;2024-01-06T01:22:01;7.40;99.90
47310;DHT22;33046;52.270;6.832;2024-01-06T01:24:08;7.40;99.90
47310;DHT22;33046;52.270;6.832;2024-01-06T01:26:15;7.40;99.90
47310;DHT22;33046;52.270;6.832;2024-01-06T01:28:21;7.40;99.90
47310;DHT22;33046;52.270;6.832;2024-01-06T01:30:28;7.40;99.90
47310;DHT22;33046;52.270;6.832;2024-01-06T01:32:35;7.40;99.90
47310;DHT22;33046;52.270;6.832;2024-01-06T01:34:43;7.40;99.90
47310;DHT22;33046;52.270;6.832;2024-01-06T01:36:50;7.30;99.90
47310;DHT22;33046;52.270;6.832;2024-01-06T01:38:57;7.40;99.90
47310;DHT22;33046;52.270;6.832;2024-01-06T01:41:04;7.40;99.90
47310;DHT22;33046;52.270;6.832;2024-01-06T01:43:16;7.20;99.90
47310;DHT22;33046;52.270;6.832;2024-01-06T01:45:23;7.10;99.90
47310;DHT22;33046;52.270;6.832;2024-01-06T01:47:30;7.10;99.90
47310;DHT22;33046;52.270;6.832;2024-01-06T01:49:37;7.10;99.90
47310;DHT22;33046;52.270;6.832;2024-01-06T01:51:46;7.10;99.90
47310;DHT22;33046;52.270;6.832;2024-01-06T01:53:53;7.10;99.90
47310;DHT22;33046;52.270;6.832;2024-01-06T01:56:00;7.10;99.90
47310;DHT22;33046;52.270;6.832;2024-01-06T01:58:08;7.10;99.90
47310;DHT22;33046;52.270;6.832;2024-01-06T02:00:16;7.20;99.90
47310;DHT22;33046;52.270;6.832;2024-01-06T02:02:23;7.20;99.90
47310;DHT22;33046;52.270;6.832;2024-01-06T02:04:29;7.10;99.90
47310;DHT22;33046;52.270;6.832;2024-01-06T02:06:36;7.10;99.90
47310;DHT22;33046;52.270;6.832;2024-01-06T02:08:44;7.10;99.90
47310;DHT22;33046;52.270;6.832;2024-01-06T02:10:52;7.20;99.90
47310;DHT22;33046;52.270;6.832;2024-01-06T02:13:08;7.20;99.90
47310;DHT22;33046;52.270;6.832;2024-01-06T02:15:15;7.10;99.90
47310;DHT22;33046;52.270;6.832;2024-01-06T02:17:22;7.10;99.90
47310;DHT22;33046;52.270;6.832;2024-01-06T02:19:28;7.10;99.90
47310;DHT22;33046;52.270;6.832;2024-01-06T02:21:35;7.00;99.90
47310;DHT22;33046;52.270;6.832;2024-01-06T02:23:48;6.80;99.90
47310;DHT22;33046;52.270;6.832;2024-01-06T02:25:56;6.90;99.90
47310;DHT22;33046;52.270;6.832;2024-01-06T02:28:03;6.90;99.90
47310;DHT22;33046;52.270;6.832;2024-01-06T02:30:10;6.90;99.90
47310;DHT22;33046;52.270;6.832;2024-01-06T02:32:17;7.00;99.90
47310;DHT22;33046;52.270;6.832;2024-01-06T02:34:24;7.00;99.90
47310;DHT22;33046;52.270;6.832;2024-01-06T02:36:31;7.00;99.90
47310;DHT22;33046;52.270;6.832;2024-01-06T02:38:38;6.80;99.90
47310;DHT22;33046;52.270;6.832;2024-01-06T02:40:46;6.70;99.90
47310;DHT22;33046;52.270;6.832;2024-01-06T02:42:53;6.60;99.90
47310;DHT22;33046;52.270;6.832;2024-01-06T02:45:00;6.60;99.90
47310;DHT22;33046;52.270;6.832;2024-01-06T02:47:06;6.60;99.90
47310;DHT22;33046;52.270;6.832;2024-01-06T02:49:13;6.60;99.90
47310;DHT22;33046;52.270;6.832;2024-01-06T02:51:20;6.60;99.90
47310;DHT22;33046;52.270;6.832;2024-01-06T02:53:27;6.50;99.90
47310;DHT22;33046;52.270;6.832;2024-01-06T02:55:34;6.50;99.90
47310;DHT22;33046;52.270;6.832;2024-01-06T02:57:42;6.60;99.90
47310;DHT22;33046;52.270;6.832;2024-01-06T02:59:49;6.60;99.90
47310;DHT22;33046;52.270;6.832;2024-01-06T03:01:56;6.60;99.90
47310;DHT22;33046;52.270;6.832;2024-01-06T03:04:02;6.60;99.90
47310;DHT22;33046;52.270;6.832;2024-01-06T03:06:09;6.60;99.90
47310;DHT22;33046;52.270;6.832;2024-01-06T03:08:16;6.70;99.90
47310;DHT22;33046;52.270;6.832;2024-01-06T03:10:23;6.70;99.90
47310;DHT22;33046;52.270;6.832;2024-01-06T03:12:30;6.70;99.90
47310;DHT22;33046;52.270;6.832;2024-01-06T03:14:38;6.70;99.90
47310;DHT22;33046;52.270;6.832;2024-01-06T03:16:45;6.70;99.90
47310;DHT22;33046;52.270;6.832;2024-01-06T03:18:52;6.80;99.90
47310;DHT22;33046;52.270;6.832;2024-01-06T03:20:59;6.70;99.90
47310;DHT22;33046;52.270;6.832;2024-01-06T03:23:05;6.80;99.90
47310;DHT22;33046;52.270;6.832;2024-01-06T03:25:12;6.70;99.90
47310;DHT22;33046;52.270;6.832;2024-01-06T03:27:19;6.80;99.90
47310;DHT22;33046;52.270;6.832;2024-01-06T03:29:26;6.80;99.90
47310;DHT22;33046;52.270;6.832;2024-01-06T03:31:34;6.70;99.90
47310;DHT22;33046;52.270;6.832;2024-01-06T03:33:42;6.80;99.90
47310;DHT22;33046;52.270;6.832;2024-01-06T03:35:49;6.80;99.90
47310;DHT22;33046;52.270;6.832;2024-01-06T03:37:56;6.70;99.90
47310;DHT22;33046;52.270;6.832;2024-01-06T03:40:03;6.70;99.90
47310;DHT22;33046;52.270;6.832;2024-01-06T03:42:10;6.60;99.90
47310;DHT22;33046;52.270;6.832;2024-01-06T03:44:17;6.50;99.90
47310;DHT22;33046;52.270;6.832;2024-01-06T03:46:24;6.50;99.90
47310;DHT22;33046;52.270;6.832;2024-01-06T03:48:32;6.50;99.90
47310;DHT22;33046;52.270;6.832;2024-01-06T03:50:39;6.40;99.90
47310;DHT22;33046;52.270;6.832;2024-01-06T03:52:46;6.40;99.90
47310;DHT22;33046;52.270;6.832;2024-01-06T03:54:53;6.40;99.90
47310;DHT22;33046;52.270;6.832;2024-01-06T03:57:00;6.30;99.90
47310;DHT22;33046;52.270;6.832;2024-01-06T03:59:07;6.30;99.90
47310;DHT22;33046;52.270;6.832;2024-01-06T04:01:13;6.30;99.90
47310;DHT22;33046;52.270;6.832;2024-01-06T04:03:20;6.40;99.90
47310;DHT22;33046;52.270;6.832;2024-01-06T04:05:29;6.40;99.90
47310;DHT22;33046;52.270;6.832;2024-01-06T04:07:35;6.30;99.90
47310;DHT22;33046;52.270;6.832;2024-01-06T04:09:42;6.30;99.90
47310;DHT22;33046;52.270;6.832;2024-01-06T04:11:49;6.30;99.90
47310;DHT22;33046;52.270;6.832;2024-01-06T04:13:56;6.30;99.90
47310;DHT22;33046;52.270;6.832;2024-01-06T04:16:04;6.20;99.90
47310;DHT22;33046;52.270;6.832;2024-01-06T04:18:10;6.20;99.90
47310;DHT22;33046;52.270;6.832;2024-01-06T04:20:17;6.20;99.90
47310;DHT22;33046;52.270;6.832;2024-01-06T04:22:26;6.20;99.90
47310;DHT22;33046;52.270;6.832;2024-01-06T04:24:32;6.20;99.90
47310;DHT22;33046;52.270;6.832;2024-01-06T04:26:39;6.10;99.90
47310;DHT22;33046;52.270;6.832;2024-01-06T04:28:46;6.10;99.90
47310;DHT22;33046;52.270;6.832;2024-01-06T04:30:53;6.20;99.90
47310;DHT22;33046;52.270;6.832;2024-01-06T04:33:00;6.10;99.90
47310;DHT22;33046;52.270;6.832;2024-01-06T04:35:07;6.20;99.90
47310;DHT22;33046;52.270;6.832;2024-01-06T04:37:14;6.20;99.90
47310;DHT22;33046;52.270;6.832;2024-01-06T04:39:22;6.10;99.90
47310;DHT22;33046;52.270;6.832;2024-01-06T04:41:29;6.10;99.90
47310;DHT22;33046;52.270;6.832;2024-01-06T04:43:36;6.00;99.90
47310;DHT22;33046;52.270;6.832;2024-01-06T04:45:43;6.10;99.90
47310;DHT22;33046;52.270;6.832;2024-01-06T04:47:50;6.00;99.90
47310;DHT22;33046;52.270;6.832;2024-01-06T04:49:57;6.00;99.90
47310;DHT22;33046;52.270;6.832;2024-01-06T04:52:04;6.10;99.90
47310;DHT22;33046;52.270;6.832;2024-01-06T04:54:11;6.10;99.90
47310;DHT22;33046;52.270;6.832;2024-01-06T04:56:19;6.00;99.90
47310;DHT22;33046;52.270;6.832;2024-01-06T04:58:26;6.00;99.90
47310;DHT22;33046;52.270;6.832;2024-01-06T05:00:33;6.00;99.90
47310;DHT22;33046;52.270;6.832;2024-01-06T05:02:40;6.00;99.90
47310;DHT22;33046;52.270;6.832;2024-01-06T05:04:47;6.10;99.90
47310;DHT22;33046;52.270;6.832;2024-01-06T05:06:54;6.10;99.90
47310;DHT22;33046;52.270;6.832;2024-01-06T05:09:01;6.10;99.90
47310;DHT22;33046;52.270;6.832;2024-01-06T05:11:08;6.10;99.90
47310;DHT22;33046;52.270;6.832;2024-01-06T05:13:16;5.90;99.90
47310;DHT22;33046;52.270;6.832;2024-01-06T05:15:23;5.80;99.90
47310;DHT22;33046;52.270;6.832;2024-01-06T05:17:29;5.90;99.90
47310;DHT22;33046;52.270;6.832;2024-01-06T05:19:36;5.80;99.90
47310;DHT22;33046;52.270;6.832;2024-01-06T05:21:43;5.70;99.90
47310;DHT22;33046;52.270;6.832;2024-01-06T05:23:50;5.80;99.90
47310;DHT22;33046;52.270;6.832;2024-01-06T05:25:57;5.80;99.90
47310;DHT22;33046;52.270;6.832;2024-01-06T05:28:04;5.80;99.90
47310;DHT22;33046;52.270;6.832;2024-01-06T05:30:13;5.80;99.90
47310;DHT22;33046;52.270;6.832;2024-01-06T05:32:19;5.80;99.90
47310;DHT22;33046;52.270;6.832;2024-01-06T05:34:26;5.70;99.90
47310;DHT22;33046;52.270;6.832;2024-01-06T05:36:33;5.70;99.90
47310;DHT22;33046;52.270;6.832;2024-01-06T05:38:40;5.80;99.90
47310;DHT22;33046;52.270;6.832;2024-01-06T05:40:47;5.70;99.90
47310;DHT22;33046;52.270;6.832;2024-01-06T05:42:54;5.50;99.90
47310;DHT22;33046;52.270;6.832;2024-01-06T05:45:01;5.50;99.90
47310;DHT22;33046;52.270;6.832;2024-01-06T05:47:09;5.40;99.90
47310;DHT22;33046;52.270;6.832;2024-01-06T05:49:16;5.40;99.90
47310;DHT22;33046;52.270;6.832;2024-01-06T05:51:23;5.50;99.90
47310;DHT22;33046;52.270;6.832;2024-01-06T05:53:30;5.50;99.90
47310;DHT22;33046;52.270;6.832;2024-01-06T05:55:37;5.50;99.90
47310;DHT22;33046;52.270;6.832;2024-01-06T05:57:44;5.40;99.90
47310;DHT22;33046;52.270;6.832;2024-01-06T05:59:51;5.40;99.90
47310;DHT22;33046;52.270;6.832;2024-01-06T06:01:58;5.40;99.90
47310;DHT22;33046;52.270;6.832;2024-01-06T06:04:06;5.40;99.90
47310;DHT22;33046;52.270;6.832;2024-01-06T06:06:13;5.40;99.90
47310;DHT22;33046;52.270;6.832;2024-01-06T06:08:20;5.40;99.90
47310;DHT22;33046;52.270;6.832;2024-01-06T06:10:27;5.40;99.90
47310;DHT22;33046;52.270;6.832;2024-01-06T06:12:34;5.40;99.90
47310;DHT22;33046;52.270;6.832;2024-01-06T06:14:41;5.30;99.90
47310;DHT22;33046;52.270;6.832;2024-01-06T06:16:47;5.40;99.90
47310;DHT22;33046;52.270;6.832;2024-01-06T06:18:56;5.20;99.90
47310;DHT22;33046;52.270;6.832;2024-01-06T06:21:06;5.20;99.90
47310;DHT22;33046;52.270;6.832;2024-01-06T06:23:13;5.20;99.90
47310;DHT22;33046;52.270;6.832;2024-01-06T06:25:20;5.10;99.90
47310;DHT22;33046;52.270;6.832;2024-01-06T06:27:27;5.10;99.90
47310;DHT22;33046;52.270;6.832;2024-01-06T06:29:34;5.00;99.90
47310;DHT22;33046;52.270;6.832;2024-01-06T06:31:41;5.10;99.90
47310;DHT22;33046;52.270;6.832;2024-01-06T06:33:48;5.10;99.90
47310;DHT22;33046;52.270;6.832;2024-01-06T06:35:55;5.10;99.90
47310;DHT22;33046;52.270;6.832;2024-01-06T06:38:03;5.10;99.90
47310;DHT22;33046;52.270;6.832;2024-01-06T06:40:11;5.00;99.90
47310;DHT22;33046;52.270;6.832;2024-01-06T06:42:17;5.20;99.90
47310;DHT22;33046;52.270;6.832;2024-01-06T06:44:24;5.20;99.90
47310;DHT22;33046;52.270;6.832;2024-01-06T06:46:31;5.10;99.90
47310;DHT22;33046;52.270;6.832;2024-01-06T06:48:38;5.00;99.90
47310;DHT22;33046;52.270;6.832;2024-01-06T06:50:45;5.10;99.90
47310;DHT22;33046;52.270;6.832;2024-01-06T06:52:52;5.10;99.90
47310;DHT22;33046;52.270;6.832;2024-01-06T06:55:00;5.20;99.90
47310;DHT22;33046;52.270;6.832;2024-01-06T06:57:07;5.20;99.90
47310;DHT22;33046;52.270;6.832;2024-01-06T06:59:13;5.20;99.90
47310;DHT22;33046;52.270;6.832;2024-01-06T07:01:20;5.10;99.90
47310;DHT22;33046;52.270;6.832;2024-01-06T07:03:27;5.00;99.90
47310;DHT22;33046;52.270;6.832;2024-01-06T07:05:34;5.00;99.90
47310;DHT22;33046;52.270;6.832;2024-01-06T07:07:41;5.00;99.90
47310;DHT22;33046;52.270;6.832;2024-01-06T07:09:48;5.00;99.90
47310;DHT22;33046;52.270;6.832;2024-01-06T07:11:56;4.90;99.90
47310;DHT22;33046;52.270;6.832;2024-01-06T07:14:03;5.00;99.90
47310;DHT22;33046;52.270;6.832;2024-01-06T07:16:10;5.00;99.90
47310;DHT22;33046;52.270;6.832;2024-01-06T07:18:17;5.00;99.90
47310;DHT22;33046;52.270;6.832;2024-01-06T07:20:24;4.90;99.90
47310;DHT22;33046;52.270;6.832;2024-01-06T07:22:30;4.90;99.90
47310;DHT22;33046;52.270;6.832;2024-01-06T07:24:37;4.90;99.90
47310;DHT22;33046;52.270;6.832;2024-01-06T07:26:44;4.90;99.90
47310;DHT22;33046;52.270;6.832;2024-01-06T07:28:52;4.90;99.90
47310;DHT22;33046;52.270;6.832;2024-01-06T07:31:00;4.80;99.90
47310;DHT22;33046;52.270;6.832;2024-01-06T07:33:07;4.80;99.90
47310;DHT22;33046;52.270;6.832;2024-01-06T07:35:14;4.90;99.90
47310;DHT22;33046;52.270;6.832;2024-01-06T07:37:21;4.80;99.90
47310;DHT22;33046;52.270;6.832;2024-01-06T07:39:27;4.80;99.90
47310;DHT22;33046;52.270;6.832;2024-01-06T07:41:34;4.80;99.90
47310;DHT22;33046;52.270;6.832;2024-01-06T07:43:41;4.80;99.90
47310;DHT22;33046;52.270;6.832;2024-01-06T07:45:49;4.80;99.90
47310;DHT22;33046;52.270;6.832;2024-01-06T07:47:56;4.80;99.90
47310;DHT22;33046;52.270;6.832;2024-01-06T07:50:04;4.80;99.90
47310;DHT22;33046;52.270;6.832;2024-01-06T07:52:11;4.70;99.90
47310;DHT22;33046;52.270;6.832;2024-01-06T07:54:18;4.70;99.90
47310;DHT22;33046;52.270;6.832;2024-01-06T07:56:25;4.70;99.90
47310;DHT22;33046;52.270;6.832;2024-01-06T07:58:32;4.60;99.90
47310;DHT22;33046;52.270;6.832;2024-01-06T08:00:39;4.60;99.90
47310;DHT22;33046;52.270;6.832;2024-01-06T08:02:47;4.70;99.90
47310;DHT22;33046;52.270;6.832;2024-01-06T08:04:54;4.70;99.90
47310;DHT22;33046;52.270;6.832;2024-01-06T08:07:01;4.70;99.90
47310;DHT22;33046;52.270;6.832;2024-01-06T08:09:08;4.60;99.90
47310;DHT22;33046;52.270;6.832;2024-01-06T08:11:15;4.70;99.90
47310;DHT22;33046;52.270;6.832;2024-01-06T08:13:21;4.70;99.90
47310;DHT22;33046;52.270;6.832;2024-01-06T08:15:28;4.70;99.90
47310;DHT22;33046;52.270;6.832;2024-01-06T08:17:35;4.80;99.90
47310;DHT22;33046;52.270;6.832;2024-01-06T08:19:43;4.70;99.90
47310;DHT22;33046;52.270;6.832;2024-01-06T08:21:50;4.70;99.90
47310;DHT22;33046;52.270;6.832;2024-01-06T08:23:57;4.80;99.90
47310;DHT22;33046;52.270;6.832;2024-01-06T08:26:05;4.80;99.90
47310;DHT22;33046;52.270;6.832;2024-01-06T08:28:13;4.70;99.90
47310;DHT22;33046;52.270;6.832;2024-01-06T08:30:20;4.80;99.90
47310;DHT22;33046;52.270;6.832;2024-01-06T08:32:27;4.70;99.90
47310;DHT22;33046;52.270;6.832;2024-01-06T08:34:34;4.70;99.90
47310;DHT22;33046;52.270;6.832;2024-01-06T08:36:42;4.60;99.90
47310;DHT22;33046;52.270;6.832;2024-01-06T08:38:49;4.70;99.90
47310;DHT22;33046;52.270;6.832;2024-01-06T08:40:56;4.70;99.90
47310;DHT22;33046;52.270;6.832;2024-01-06T08:43:03;4.70;99.90
47310;DHT22;33046;52.270;6.832;2024-01-06T08:45:10;4.80;99.90
47310;DHT22;33046;52.270;6.832;2024-01-06T08:47:17;4.80;99.90
47310;DHT22;33046;52.270;6.832;2024-01-06T08:49:24;4.80;99.90
47310;DHT22;33046;52.270;6.832;2024-01-06T08:51:30;4.80;99.90
47310;DHT22;33046;52.270;6.832;2024-01-06T08:53:39;4.80;99.90
47310;DHT22;33046;52.270;6.832;2024-01-06T08:55:46;4.80;99.90
47310;DHT22;33046;52.270;6.832;2024-01-06T08:57:52;4.70;99.90
47310;DHT22;33046;52.270;6.832;2024-01-06T08:59:59;4.70;99.90
47310;DHT22;33046;52.270;6.832;2024-01-06T09:02:06;4.70;99.90
47310;DHT22;33046;52.270;6.832;2024-01-06T09:04:13;4.70;99.90
47310;DHT22;33046;52.270;6.832;2024-01-06T09:06:20;4.70;99.90
47310;DHT22;33046;52.270;6.832;2024-01-06T09:08:27;4.70;99.90
47310;DHT22;33046;52.270;6.832;2024-01-06T09:10:35;4.80;99.90
47310;DHT22;33046;52.270;6.832;2024-01-06T09:12:42;4.70;99.90
47310;DHT22;33046;52.270;6.832;2024-01-06T09:14:49;4.70;99.90
47310;DHT22;33046;52.270;6.832;2024-01-06T09:16:56;4.70;99.90
47310;DHT22;33046;52.270;6.832;2024-01-06T09:19:02;4.70;99.90
47310;DHT22;33046;52.270;6.832;2024-01-06T09:21:09;4.80;99.90
47310;DHT22;33046;52.270;6.832;2024-01-06T09:23:16;4.80;99.90
47310;DHT22;33046;52.270;6.832;2024-01-06T09:25:23;4.80;99.90
47310;DHT22;33046;52.270;6.832;2024-01-06T09:27:31;4.70;99.90
47310;DHT22;33046;52.270;6.832;2024-01-06T09:29:38;4.70;99.90
47310;DHT22;33046;52.270;6.832;2024-01-06T09:31:45;4.70;99.90
47310;DHT22;33046;52.270;6.832;2024-01-06T09:33:52;4.80;99.90
47310;DHT22;33046;52.270;6.832;2024-01-06T09:35:59;4.90;99.90
47310;DHT22;33046;52.270;6.832;2024-01-06T09:38:06;5.00;99.90
47310;DHT22;33046;52.270;6.832;2024-01-06T09:40:14;5.00;99.90
47310;DHT22;33046;52.270;6.832;2024-01-06T09:42:26;5.10;99.90
47310;DHT22;33046;52.270;6.832;2024-01-06T09:44:34;5.10;99.90
47310;DHT22;33046;52.270;6.832;2024-01-06T09:46:42;5.20;99.90
47310;DHT22;33046;52.270;6.832;2024-01-06T09:48:52;5.10;99.90
47310;DHT22;33046;52.270;6.832;2024-01-06T09:51:02;5.20;99.90
47310;DHT22;33046;52.270;6.832;2024-01-06T09:53:10;5.20;99.90
47310;DHT22;33046;52.270;6.832;2024-01-06T09:55:17;5.10;99.90
47310;DHT22;33046;52.270;6.832;2024-01-06T09:57:25;5.10;99.90
47310;DHT22;33046;52.270;6.832;2024-01-06T09:59:34;5.20;99.90
47310;DHT22;33046;52.270;6.832;2024-01-06T10:01:42;5.20;99.90
47310;DHT22;33046;52.270;6.832;2024-01-06T10:03:49;5.10;99.90
47310;DHT22;33046;52.270;6.832;2024-01-06T10:05:56;5.10;99.90
47310;DHT22;33046;52.270;6.832;2024-01-06T10:08:03;5.20;99.90
47310;DHT22;33046;52.270;6.832;2024-01-06T10:10:10;5.20;99.90
47310;DHT22;33046;52.270;6.832;2024-01-06T10:12:17;5.20;99.90
47310;DHT22;33046;52.270;6.832;2024-01-06T10:14:24;5.10;99.90
47310;DHT22;33046;52.270;6.832;2024-01-06T10:16:33;5.20;99.90
47310;DHT22;33046;52.270;6.832;2024-01-06T10:18:40;5.10;99.90
47310;DHT22;33046;52.270;6.832;2024-01-06T10:20:47;5.20;99.90
47310;DHT22;33046;52.270;6.832;2024-01-06T10:22:54;5.20;99.90
47310;DHT22;33046;52.270;6.832;2024-01-06T10:25:01;5.30;99.90
47310;DHT22;33046;52.270;6.832;2024-01-06T10:27:08;5.30;99.90
47310;DHT22;33046;52.270;6.832;2024-01-06T10:29:15;5.30;99.90
47310;DHT22;33046;52.270;6.832;2024-01-06T10:31:22;5.40;99.90
47310;DHT22;33046;52.270;6.832;2024-01-06T10:33:32;5.30;99.90
47310;DHT22;33046;52.270;6.832;2024-01-06T10:35:40;5.30;99.90
47310;DHT22;33046;52.270;6.832;2024-01-06T10:37:47;5.20;99.90
47310;DHT22;33046;52.270;6.832;2024-01-06T10:40:08;5.40;99.90
47310;DHT22;33046;52.270;6.832;2024-01-06T10:42:16;5.30;99.90
47310;DHT22;33046;52.270;6.832;2024-01-06T10:44:24;5.30;99.90
47310;DHT22;33046;52.270;6.832;2024-01-06T10:46:31;5.20;99.90
47310;DHT22;33046;52.270;6.832;2024-01-06T10:48:40;5.30;99.90
47310;DHT22;33046;52.270;6.832;2024-01-06T10:50:48;5.30;99.90
47310;DHT22;33046;52.270;6.832;2024-01-06T10:52:56;5.20;99.90
47310;DHT22;33046;52.270;6.832;2024-01-06T10:55:05;5.30;99.90
47310;DHT22;33046;52.270;6.832;2024-01-06T10:57:12;5.20;99.90
47310;DHT22;33046;52.270;6.832;2024-01-06T10:59:21;5.30;99.90
47310;DHT22;33046;52.270;6.832;2024-01-06T11:01:30;5.30;99.90
47310;DHT22;33046;52.270;6.832;2024-01-06T11:03:39;5.30;99.90
47310;DHT22;33046;52.270;6.832;2024-01-06T11:05:46;5.40;99.90
47310;DHT22;33046;52.270;6.832;2024-01-06T11:07:53;5.40;99.90
47310;DHT22;33046;52.270;6.832;2024-01-06T11:10:05;5.30;99.90
47310;DHT22;33046;52.270;6.832;2024-01-06T11:12:13;5.40;99.90
47310;DHT22;33046;52.270;6.832;2024-01-06T11:14:22;5.40;99.90
47310;DHT22;33046;52.270;6.832;2024-01-06T11:16:37;5.40;99.90
47310;DHT22;33046;52.270;6.832;2024-01-06T11:18:45;5.30;99.90
47310;DHT22;33046;52.270;6.832;2024-01-06T11:21:17;5.30;99.90
47310;DHT22;33046;52.270;6.832;2024-01-06T11:23:24;5.40;99.90
47310;DHT22;33046;52.270;6.832;2024-01-06T11:25:31;5.30;99.90
47310;DHT22;33046;52.270;6.832;2024-01-06T11:27:37;5.30;99.90
47310;DHT22;33046;52.270;6.832;2024-01-06T11:29:44;5.40;99.90
47310;DHT22;33046;52.270;6.832;2024-01-06T11:32:17;5.30;99.90
47310;DHT22;33046;52.270;6.832;2024-01-06T11:34:25;5.30;99.90
47310;DHT22;33046;52.270;6.832;2024-01-06T11:36:32;5.20;99.90
47310;DHT22;33046;52.270;6.832;2024-01-06T11:38:39;5.20;99.90
47310;DHT22;33046;52.270;6.832;2024-01-06T11:40:46;5.20;99.90
47310;DHT22;33046;52.270;6.832;2024-01-06T11:43:02;5.30;99.90
47310;DHT22;33046;52.270;6.832;2024-01-06T11:45:09;5.30;99.90
47310;DHT22;33046;52.270;6.832;2024-01-06T11:47:17;5.20;99.90
47310;DHT22;33046;52.270;6.832;2024-01-06T11:49:27;5.10;99.90
47310;DHT22;33046;52.270;6.832;2024-01-06T11:51:34;5.00;99.90
47310;DHT22;33046;52.270;6.832;2024-01-06T11:53:40;5.00;99.90
47310;DHT22;33046;52.270;6.832;2024-01-06T11:55:48;5.00;99.90
47310;DHT22;33046;52.270;6.832;2024-01-06T11:57:55;5.10;99.90
47310;DHT22;33046;52.270;6.832;2024-01-06T12:00:02;5.20;99.90
47310;DHT22;33046;52.270;6.832;2024-01-06T12:02:12;5.30;99.90
47310;DHT22;33046;52.270;6.832;2024-01-06T12:04:19;5.20;99.90
47310;DHT22;33046;52.270;6.832;2024-01-06T12:06:27;5.20;99.90
47310;DHT22;33046;52.270;6.832;2024-01-06T12:08:34;5.20;99.90
47310;DHT22;33046;52.270;6.832;2024-01-06T12:10:41;5.10;99.90
47310;DHT22;33046;52.270;6.832;2024-01-06T12:12:55;5.10;99.90
47310;DHT22;33046;52.270;6.832;2024-01-06T12:15:02;5.10;99.90
47310;DHT22;33046;52.270;6.832;2024-01-06T12:17:10;5.20;99.90
47310;DHT22;33046;52.270;6.832;2024-01-06T12:19:17;5.10;99.90
47310;DHT22;33046;52.270;6.832;2024-01-06T12:21:23;5.10;99.90
47310;DHT22;33046;52.270;6.832;2024-01-06T12:23:32;5.20;99.90
47310;DHT22;33046;52.270;6.832;2024-01-06T12:25:39;5.10;99.90
47310;DHT22;33046;52.270;6.832;2024-01-06T12:27:46;5.10;99.90
47310;DHT22;33046;52.270;6.832;2024-01-06T12:29:53;5.00;99.90
47310;DHT22;33046;52.270;6.832;2024-01-06T12:32:00;5.10;99.90
47310;DHT22;33046;52.270;6.832;2024-01-06T12:34:07;5.00;99.90
47310;DHT22;33046;52.270;6.832;2024-01-06T12:36:14;5.00;99.90
47310;DHT22;33046;52.270;6.832;2024-01-06T12:38:24;5.00;99.90
47310;DHT22;33046;52.270;6.832;2024-01-06T12:40:32;4.90;99.90
47310;DHT22;33046;52.270;6.832;2024-01-06T12:42:39;5.00;99.90
47310;DHT22;33046;52.270;6.832;2024-01-06T12:44:45;4.90;99.90
47310;DHT22;33046;52.270;6.832;2024-01-06T12:46:52;5.00;99.90
47310;DHT22;33046;52.270;6.832;2024-01-06T12:48:59;5.00;99.90
47310;DHT22;33046;52.270;6.832;2024-01-06T12:51:06;5.00;99.90
47310;DHT22;33046;52.270;6.832;2024-01-06T12:53:13;5.00;99.90
47310;DHT22;33046;52.270;6.832;2024-01-06T12:55:20;4.90;99.90
47310;DHT22;33046;52.270;6.832;2024-01-06T12:57:28;4.90;99.90
47310;DHT22;33046;52.270;6.832;2024-01-06T12:59:35;5.00;99.90
47310;DHT22;33046;52.270;6.832;2024-01-06T13:01:42;5.00;99.90
47310;DHT22;33046;52.270;6.832;2024-01-06T13:03:49;5.00;99.90
47310;DHT22;33046;52.270;6.832;2024-01-06T13:05:56;4.90;99.90
47310;DHT22;33046;52.270;6.832;2024-01-06T13:08:03;4.90;99.90
47310;DHT22;33046;52.270;6.832;2024-01-06T13:10:10;4.80;99.90
47310;DHT22;33046;52.270;6.832;2024-01-06T13:12:17;4.80;99.90
47310;DHT22;33046;52.270;6.832;2024-01-06T13:14:25;4.70;99.90
47310;DHT22;33046;52.270;6.832;2024-01-06T13:16:32;4.70;99.90
47310;DHT22;33046;52.270;6.832;2024-01-06T13:18:39;4.90;99.90
47310;DHT22;33046;52.270;6.832;2024-01-06T13:20:46;4.90;99.90
47310;DHT22;33046;52.270;6.832;2024-01-06T13:22:53;4.80;99.90
47310;DHT22;33046;52.270;6.832;2024-01-06T13:25:00;4.80;99.90
47310;DHT22;33046;52.270;6.832;2024-01-06T13:27:06;4.90;99.90
47310;DHT22;33046;52.270;6.832;2024-01-06T13:29:13;4.80;99.90
47310;DHT22;33046;52.270;6.832;2024-01-06T13:31:22;4.80;99.90
47310;DHT22;33046;52.270;6.832;2024-01-06T13:33:28;4.80;99.90
47310;DHT22;33046;52.270;6.832;2024-01-06T13:35:35;4.70;99.90
47310;DHT22;33046;52.270;6.832;2024-01-06T13:37:42;4.80;99.90